Nanyue, China
Current Conditions -  °F | °C
As of 2:00 AM on Monday 26 Jan 2015 (Local Time) from ZGHA Reporting Station
Drizzle Drizzle  
Wind Chill: 42°   Ceiling: Unl
Heat Index: 45°   Visibility: 0.56mi
Dew Point: 41°   Wind: 4mph
Humidity: 87%   Direction: 10°N
Pressure: 30.21"   Gusts: NA
Location:  27.3°N, 112.7°E
Report Text: ZGHA 251800Z 01002MPS 0900 R36/0900V1000N -DZ FGFEW002SCT004 07/05 Q1023 NOSIG
Loading
Personal Weather Stations






























Interactive Weather Map New forecast layout! Learn more

10-Day Weather Forecast

Advertisements
Track Severe Weather on mobile